Time;durP1;ratioP1;P1;durP2;ratioP2;P2;SDS_P1;SDS_P2;PMS_P1;PMS_P2;Temp;Humidity;BMP_temperature;BMP_pressure;BME280_temperature;BME280_humidity;BME280_pressure;Samples;Min_cycle;Max_cycle;Signal;HPM_P1;HPM_P2
2022/09/16 06:19:19;;;;;;;3.60;1.40;;;;;;;20.35;56.33;99186.31;107171;1286;544573;-43
2022/09/16 06:21:48;;;;;;;4.60;1.30;;;;;;;20.38;55.79;99186.79;109716;1260;21963;-47
2022/09/16 06:24:19;;;;;;;76.80;6.20;;;;;;;20.44;55.40;99183.02;109938;1260;21971;-48
2022/09/16 06:26:48;;;;;;;22.10;2.30;;;;;;;20.50;54.76;99180.63;109938;1260;22001;-45
2022/09/16 06:29:17;;;;;;;15.00;2.60;;;;;;;20.57;54.08;99184.41;109909;1262;23683;-44
2022/09/16 06:31:46;;;;;;;10.20;1.80;;;;;;;20.64;53.57;99181.95;109844;1262;21966;-47
2022/09/16 06:34:17;;;;;;;11.50;1.90;;;;;;;20.73;52.70;99180.37;108930;1260;23586;-47
2022/09/16 06:36:47;;;;;;;7.50;1.70;;;;;;;20.78;52.41;99177.70;110124;1256;23030;-46
2022/09/16 06:39:16;;;;;;;9.90;2.70;;;;;;;20.85;51.90;99179.98;110062;1257;22670;-52
2022/09/16 06:41:50;;;;;;;8.40;2.30;;;;;;;20.92;51.37;99178.52;110025;1257;23599;-47
2022/09/16 06:44:19;;;;;;;9.00;2.30;;;;;;;20.98;51.08;99181.79;110049;1257;21960;-46
2022/09/16 06:46:48;;;;;;;6.20;2.50;;;;;;;21.03;50.92;99183.36;110043;1257;22765;-47
2022/09/16 06:49:17;;;;;;;7.60;2.10;;;;;;;21.07;50.62;99184.39;110061;1257;21982;-48
2022/09/16 06:51:46;;;;;;;4.70;1.80;;;;;;;21.10;50.02;99185.91;110023;1257;21969;-54
2022/09/16 06:54:15;;;;;;;12.10;2.50;;;;;;;21.13;49.79;99184.59;110071;1257;22185;-48
2022/09/16 06:56:44;;;;;;;8.10;2.10;;;;;;;21.15;49.60;99183.98;110221;1256;21976;-49
2022/09/16 06:59:14;;;;;;;5.30;1.80;;;;;;;21.18;49.45;99188.64;110139;1257;22744;-50
2022/09/16 07:01:43;;;;;;;8.40;2.70;;;;;;;21.19;49.10;99188.49;110105;1257;23562;-50
2022/09/16 07:04:12;;;;;;;6.60;2.70;;;;;;;21.20;49.05;99187.53;110137;1257;23072;-49
2022/09/16 07:06:41;;;;;;;11.80;2.30;;;;;;;21.22;48.88;99183.80;110037;1257;22416;-53
2022/09/16 07:09:31;;;;;;;9.00;3.10;;;;;;;21.24;48.69;99181.82;110049;1256;21970;-47
2022/09/16 07:12:01;;;;;;;6.30;2.60;;;;;;;21.26;48.61;99183.20;110088;1259;23013;-47
2022/09/16 07:14:32;;;;;;;8.70;2.00;;;;;;;21.27;48.48;99184.54;110088;1257;23028;-46
2022/09/16 07:17:01;;;;;;;5.10;2.30;;;;;;;21.28;48.32;99186.77;110000;1257;23563;-51
2022/09/16 07:19:30;;;;;;;4.20;1.80;;;;;;;21.28;48.17;99189.91;110439;1256;23020;-46
2022/09/16 07:21:59;;;;;;;6.80;2.40;;;;;;;21.29;48.01;99189.63;110339;1256;23061;-48
2022/09/16 07:24:28;;;;;;;3.60;1.80;;;;;;;21.30;47.89;99188.63;110402;1257;23643;-48
2022/09/16 07:26:57;;;;;;;11.90;1.80;;;;;;;21.30;47.64;99193.61;110279;1255;21997;-46
2022/09/16 07:29:27;;;;;;;6.50;1.80;;;;;;;21.30;47.42;99194.70;110204;1257;23602;-48
2022/09/16 07:31:56;;;;;;;9.10;2.40;;;;;;;21.29;47.24;99196.70;110048;1257;21961;-47
2022/09/16 07:34:25;;;;;;;10.70;3.20;;;;;;;21.29;47.30;99192.44;110088;1257;23020;-46
2022/09/16 07:36:55;;;;;;;9.80;2.10;;;;;;;21.30;47.04;99190.81;110088;1256;23276;-48
2022/09/16 07:39:25;;;;;;;9.50;1.90;;;;;;;21.29;46.93;99191.42;110073;1254;23612;-47
2022/09/16 07:41:55;;;;;;;9.20;2.10;;;;;;;21.28;46.81;99194.71;110132;1256;21978;-48
2022/09/16 07:44:27;;;;;;;7.20;1.80;;;;;;;21.27;46.76;99194.44;109839;1257;23761;-48
2022/09/16 07:46:56;;;;;;;10.10;2.10;;;;;;;21.27;46.59;99191.77;110151;1256;21957;-49
2022/09/16 07:49:25;;;;;;;8.10;2.00;;;;;;;21.29;46.58;99198.67;110115;1256;23773;-49
2022/09/16 07:51:54;;;;;;;5.10;2.10;;;;;;;21.31;46.57;99199.52;110071;1255;21974;-48
2022/09/16 07:54:22;;;;;;;9.50;2.30;;;;;;;21.33;46.41;99197.38;110070;1256;23793;-48
2022/09/16 09:35:04;;;;;;;5.60;1.60;;;;;;;20.18;52.11;99202.09;107702;1279;543951;-49
2022/09/16 09:38:06;;;;;;;3.10;1.30;;;;;;;20.21;51.83;99202.47;109406;1263;21965;-48
2022/09/16 09:40:46;;;;;;;5.60;1.20;;;;;;;20.29;51.20;99200.86;109771;1263;21993;-48
2022/09/16 09:43:31;;;;;;;3.10;1.30;;;;;;;20.38;50.44;99206.07;109586;1263;21969;-49
2022/09/16 09:46:11;;;;;;;4.20;1.50;;;;;;;20.46;49.71;99202.09;109821;1263;23696;-49
2022/09/16 09:48:50;;;;;;;3.80;1.10;;;;;;;20.53;49.00;99200.80;108514;1260;1799026;-51
2022/09/16 09:51:54;;;;;;;6.30;1.40;;;;;;;20.64;48.41;99204.95;109999;1260;21969;-55
2022/09/16 09:54:35;;;;;;;4.30;1.70;;;;;;;20.73;48.07;99200.20;109380;1260;23659;-52
2022/09/16 09:57:36;;;;;;;11.20;1.80;;;;;;;20.82;47.64;99206.33;109795;1260;23556;-54
2022/09/16 10:00:16;;;;;;;5.00;1.30;;;;;;;20.90;47.19;99206.86;109608;1263;22035;-49
2022/09/16 10:02:46;;;;;;;4.50;1.50;;;;;;;20.96;46.84;99200.88;109855;1260;23659;-52
2022/09/16 10:05:28;;;;;;;2.70;1.50;;;;;;;21.03;46.56;99203.33;109813;1260;21960;-56
2022/09/16 10:08:03;;;;;;;3.10;1.20;;;;;;;21.09;46.31;99201.58;109817;1260;22067;-54
2022/09/16 10:10:39;;;;;;;3.80;2.10;;;;;;;21.13;45.88;99194.41;109788;1260;21979;-53
2022/09/16 10:13:11;;;;;;;3.20;2.00;;;;;;;21.17;45.75;99192.28;109747;1260;23021;-54
2022/09/16 10:15:41;;;;;;;5.20;1.40;;;;;;;21.20;45.52;99188.93;109705;1261;22749;-53
2022/09/16 10:18:22;;;;;;;3.00;1.50;;;;;;;21.23;45.48;99190.75;109816;1260;23665;-54
2022/09/16 10:21:01;;;;;;;4.80;1.30;;;;;;;21.26;45.48;99192.73;109788;1260;23567;-53
2022/09/16 10:23:33;;;;;;;6.80;1.80;;;;;;;21.29;45.24;99190.92;109780;1260;23577;-47
2022/09/16 10:26:25;;;;;;;2.70;1.70;;;;;;;21.32;45.26;99185.13;109824;1260;23122;-49
2022/09/16 10:29:12;;;;;;;3.80;1.70;;;;;;;21.33;45.35;99186.73;109781;1260;24278;-49
2022/09/16 10:31:42;;;;;;;3.90;1.70;;;;;;;21.35;45.24;99195.01;109675;1260;23668;-52
2022/09/16 10:34:32;;;;;;;5.20;1.90;;;;;;;21.37;45.04;99195.88;109745;1260;21966;-49
2022/09/16 10:37:13;;;;;;;26.00;14.90;;;;;;;21.38;44.98;99193.17;109760;1261;23668;-56
2022/09/16 10:39:51;;;;;;;232.50;210.40;;;;;;;21.39;44.88;99197.42;109768;1260;21954;-55
2022/09/16 10:42:26;;;;;;;59.90;54.10;;;;;;;21.41;44.79;99195.67;109798;1260;23048;-53
2022/09/16 10:45:14;;;;;;;61.90;56.10;;;;;;;21.43;44.61;99193.41;109794;1260;21966;-55
2022/09/16 10:47:51;;;;;;;53.90;48.90;;;;;;;21.43;44.46;99191.91;109772;1260;21970;-54
2022/09/16 10:50:20;;;;;;;46.80;42.50;;;;;;;21.47;44.59;99191.73;109764;1260;22026;-54
2022/09/16 10:52:50;;;;;;;37.90;33.90;;;;;;;21.51;44.69;99191.52;109750;1263;21989;-56
2022/09/16 10:55:24;;;;;;;33.60;30.40;;;;;;;21.55;44.59;99191.34;109844;1260;22031;-53
2022/09/16 10:58:15;;;;;;;27.00;23.70;;;;;;;21.57;44.68;99192.12;109857;1260;22158;-53
2022/09/16 11:00:57;;;;;;;18.90;17.00;;;;;;;21.59;44.58;99191.07;109615;1263;21982;-46
2022/09/16 11:03:52;;;;;;;15.00;13.40;;;;;;;21.60;44.35;99191.12;109802;1260;21968;-51
2022/09/16 11:06:39;;;;;;;12.40;10.90;;;;;;;21.61;44.30;99189.04;109748;1263;22020;-51
2022/09/16 11:09:27;;;;;;;9.10;8.10;;;;;;;21.63;44.07;99181.44;109750;1261;21976;-53
2022/09/16 11:12:26;;;;;;;9.10;7.40;;;;;;;21.65;43.90;99179.29;109729;1262;24551;-49
2022/09/16 11:15:33;;;;;;;7.20;6.00;;;;;;;21.65;43.67;99172.52;109784;1263;23612;-56
2022/09/16 11:18:28;;;;;;;12.70;6.10;;;;;;;21.66;43.58;99170.53;109754;1262;22011;-55
2022/09/16 11:20:57;;;;;;;13.10;5.00;;;;;;;21.68;43.78;99170.28;109739;1262;23172;-55
2022/09/16 11:24:20;;;;;;;16.80;4.90;;;;;;;21.71;43.77;99170.66;109713;1262;22214;-49
2022/09/16 11:27:37;;;;;;;13.90;4.30;;;;;;;21.71;43.43;99174.14;109407;1263;23044;-53
2022/09/16 11:30:23;;;;;;;5.60;3.20;;;;;;;21.71;43.43;99181.02;109716;1263;23631;-53
2022/09/16 11:32:57;;;;;;;6.90;2.80;;;;;;;21.71;43.29;99176.89;109528;1263;22951;-54
2022/09/16 11:35:55;;;;;;;5.50;2.80;;;;;;;21.71;43.15;99180.85;109788;1263;23631;-54
2022/09/16 11:38:38;;;;;;;3.40;2.10;;;;;;;21.71;43.04;99185.16;109739;1263;21971;-51
2022/09/16 11:41:39;;;;;;;3.90;2.40;;;;;;;21.72;43.04;99181.22;109796;1260;22892;-52
2022/09/16 11:44:34;;;;;;;19.60;2.20;;;;;;;21.72;43.13;99178.61;109807;1260;23660;-53
2022/09/16 11:47:30;;;;;;;43.20;2.70;;;;;;;21.72;43.21;99173.95;109714;1260;21983;-50
2022/09/16 11:50:15;;;;;;;53.40;4.40;;;;;;;21.74;43.55;99169.21;109717;1260;23075;-51
2022/09/16 11:53:42;;;;;;;16.40;2.30;;;;;;;21.76;43.93;99168.42;109726;1260;21970;-51
2022/09/16 11:56:56;;;;;;;13.20;1.90;;;;;;;21.77;43.93;99167.93;109834;1260;23028;-53
2022/09/16 12:00:00;;;;;;;17.10;3.10;;;;;;;21.78;44.05;99163.59;109843;1260;24296;-47
2022/09/16 12:02:46;;;;;;;39.10;3.20;;;;;;;21.77;44.05;99161.92;109855;1260;23572;-48
2022/09/16 12:05:22;;;;;;;149.30;11.40;;;;;;;21.79;43.99;99162.63;109768;1260;21969;-49
2022/09/16 12:08:35;;;;;;;72.20;6.10;;;;;;;21.79;43.90;99170.03;109631;1260;21966;-48
2022/09/16 12:11:15;;;;;;;144.90;11.00;;;;;;;21.78;43.87;99167.87;109328;1263;21966;-45
2022/09/16 12:14:17;;;;;;;123.30;8.80;;;;;;;21.80;43.78;99170.88;109779;1260;23632;-48
2022/09/16 12:17:13;;;;;;;138.00;10.50;;;;;;;21.79;44.01;99182.33;109788;1260;23044;-45
2022/09/16 12:20:04;;;;;;;54.10;5.30;;;;;;;21.76;43.65;99182.60;109778;1261;21966;-47
2022/09/16 12:22:46;;;;;;;44.60;3.70;;;;;;;21.73;43.51;99175.98;109829;1260;22847;-47
2022/09/16 12:25:27;;;;;;;35.50;3.30;;;;;;;21.71;43.21;99168.95;109999;1260;23568;-42
2022/09/16 14:18:52;;;;;;;1.80;1.00;;;;;;;20.29;49.41;99095.19;107205;1285;544303;-48
2022/09/16 14:21:23;;;;;;;4.80;1.40;;;;;;;20.34;49.41;99093.84;109330;1263;23098;-54
2022/09/16 14:23:52;;;;;;;2.90;1.00;;;;;;;20.41;49.27;99096.48;109324;1264;23057;-49
2022/09/16 14:26:26;;;;;;;2.60;1.10;;;;;;;20.50;48.80;99095.14;109411;1264;22936;-53
2022/09/16 14:29:04;;;;;;;2.30;1.10;;;;;;;20.59;48.37;99094.59;109416;1263;21972;-49
2022/09/16 14:31:33;;;;;;;2.70;1.10;;;;;;;20.69;47.87;99091.35;108278;1261;1709105;-46
2022/09/16 14:34:08;;;;;;;2.50;1.10;;;;;;;20.78;47.51;99094.02;109864;1259;21963;-48
2022/09/16 14:36:39;;;;;;;4.60;1.20;;;;;;;20.86;46.92;99091.09;109812;1260;23603;-50
2022/09/16 14:39:16;;;;;;;2.10;1.00;;;;;;;20.93;46.54;99088.95;109816;1259;23037;-45
2022/09/16 14:41:51;;;;;;;1.90;0.80;;;;;;;20.99;46.23;99087.23;109820;1260;22193;-47
2022/09/16 14:44:30;;;;;;;3.10;0.90;;;;;;;21.05;45.77;99085.41;109799;1260;23029;-47
2022/09/16 14:47:22;;;;;;;2.40;0.80;;;;;;;21.09;45.49;99078.95;109831;1260;22585;-52
2022/09/16 14:50:26;;;;;;;3.60;0.80;;;;;;;21.14;45.38;99078.50;109701;1260;23061;-48
2022/09/16 14:53:03;;;;;;;2.00;0.90;;;;;;;21.19;45.17;99074.38;109694;1260;22753;-51
2022/09/16 14:55:38;;;;;;;4.50;0.90;;;;;;;21.23;45.02;99077.00;109759;1260;22751;-51
2022/09/16 14:58:10;;;;;;;2.50;0.90;;;;;;;21.27;44.79;99079.11;109765;1260;23845;-48
2022/09/16 15:00:49;;;;;;;2.30;1.00;;;;;;;21.30;44.45;99081.48;109821;1260;22932;-54
2022/09/16 15:03:24;;;;;;;3.30;0.80;;;;;;;21.31;44.11;99080.65;109854;1260;22016;-49
2022/09/16 15:05:57;;;;;;;3.80;0.80;;;;;;;21.34;44.14;99078.05;109831;1260;22082;-46
2022/09/16 15:08:33;;;;;;;8.00;1.00;;;;;;;21.36;43.93;99080.12;109653;1260;22287;-50
2022/09/16 15:11:15;;;;;;;24.80;5.30;;;;;;;21.37;43.75;99077.54;109674;1260;21968;-46
2022/09/16 15:14:07;;;;;;;58.90;15.70;;;;;;;21.38;43.65;99083.27;109619;1260;22033;-49
2022/09/16 15:16:50;;;;;;;133.40;33.00;;;;;;;21.40;43.53;99082.83;109659;1259;23599;-48
2022/09/16 15:19:26;;;;;;;142.40;30.40;;;;;;;21.42;43.41;99085.48;109630;1260;23583;-50
2022/09/16 15:21:56;;;;;;;86.60;21.50;;;;;;;21.44;43.36;99092.71;109653;1259;22045;-48
2022/09/16 15:24:31;;;;;;;60.40;12.60;;;;;;;21.45;43.30;99106.46;109685;1260;23060;-48
2022/09/16 15:27:01;;;;;;;38.90;10.00;;;;;;;21.46;43.27;99109.38;109704;1260;22096;-50
2022/09/16 15:29:34;;;;;;;43.90;9.20;;;;;;;21.47;43.11;99104.00;109667;1260;22023;-48
2022/09/16 15:32:26;;;;;;;26.60;5.90;;;;;;;21.46;43.15;99095.38;109712;1260;21984;-46
2022/09/16 15:35:18;;;;;;;11.30;3.90;;;;;;;21.44;43.14;99097.16;109723;1260;21990;-46
2022/09/16 15:37:48;;;;;;;17.60;4.20;;;;;;;21.41;43.31;99103.98;109773;1260;22070;-47
2022/09/16 15:40:25;;;;;;;12.90;3.80;;;;;;;21.40;43.38;99111.20;109593;1260;21967;-49
2022/09/16 15:43:02;;;;;;;15.70;4.70;;;;;;;21.38;43.63;99111.23;109759;1260;22940;-45
2022/09/16 15:45:31;;;;;;;7.00;2.50;;;;;;;21.36;43.65;99103.34;109744;1259;23052;-47
2022/09/16 15:48:19;;;;;;;8.40;2.40;;;;;;;21.34;43.79;99100.27;109723;1262;21969;-48
2022/09/16 15:51:08;;;;;;;6.30;2.20;;;;;;;21.33;43.91;99097.59;109663;1261;23042;-47
2022/09/16 15:53:44;;;;;;;16.30;2.40;;;;;;;21.32;44.22;99089.89;109840;1260;21986;-46
2022/09/16 15:56:40;;;;;;;8.70;3.20;;;;;;;21.37;44.59;99089.21;109760;1260;23679;-45
2022/09/16 15:59:43;;;;;;;11.60;3.20;;;;;;;21.43;44.71;99091.48;109779;1259;23676;-50
2022/09/16 16:02:33;;;;;;;10.80;3.00;;;;;;;21.48;44.69;99090.05;109650;1260;21977;-47
2022/09/16 16:05:11;;;;;;;11.10;3.40;;;;;;;21.53;44.80;99085.98;109756;1259;21963;-51
2022/09/16 16:07:44;;;;;;;9.90;3.00;;;;;;;21.57;44.96;99084.53;109509;1260;22943;-48
2022/09/16 16:10:30;;;;;;;9.10;3.20;;;;;;;21.60;44.93;99086.47;109639;1260;21980;-44
2022/09/16 16:13:02;;;;;;;34.40;11.50;;;;;;;21.63;45.07;99084.92;110113;1254;23032;-44
2022/09/16 16:15:38;;;;;;;24.40;8.90;;;;;;;21.67;45.24;99084.58;110132;1254;22013;-50
2022/09/16 16:18:09;;;;;;;24.50;10.30;;;;;;;21.71;45.44;99083.09;110180;1254;21970;-57
2022/09/16 16:20:38;;;;;;;20.00;8.50;;;;;;;21.75;45.45;99082.64;110074;1255;22967;-50
2022/09/16 16:23:07;;;;;;;17.80;7.70;;;;;;;21.77;45.39;99081.16;110246;1254;23761;-50
2022/09/16 16:25:37;;;;;;;18.20;7.00;;;;;;;21.80;45.41;99077.18;110312;1253;23027;-52
2022/09/16 16:28:06;;;;;;;17.00;7.10;;;;;;;21.83;45.52;99075.66;110408;1253;24368;-48
2022/09/16 16:30:35;;;;;;;20.00;7.00;;;;;;;21.85;45.60;99073.88;110423;1253;21969;-46
2022/09/16 16:33:07;;;;;;;15.00;6.60;;;;;;;21.87;45.62;99074.48;110406;1253;21956;-47
2022/09/16 16:35:35;;;;;;;11.70;5.30;;;;;;;21.89;45.60;99077.10;110362;1254;23688;-47
2022/09/16 16:38:04;;;;;;;22.70;6.70;;;;;;;21.91;45.74;99075.85;110398;1253;21960;-49
2022/09/16 16:40:34;;;;;;;48.00;16.40;;;;;;;21.93;45.71;99079.41;110360;1252;23631;-48
2022/09/16 16:43:03;;;;;;;31.00;11.50;;;;;;;21.94;45.83;99077.29;110155;1254;23573;-48
2022/09/16 16:45:32;;;;;;;25.50;10.50;;;;;;;21.95;46.01;99078.77;110433;1253;21976;-49
2022/09/16 16:48:01;;;;;;;23.60;9.30;;;;;;;21.96;46.03;99079.16;110288;1254;24375;-46
